Time;durP1;ratioP1;P1;durP2;ratioP2;P2;SDS_P1;SDS_P2;PMS_P1;PMS_P2;Temp;Humidity;BMP_temperature;BMP_pressure;BME280_temperature;BME280_humidity;BME280_pressure;Samples;Min_cycle;Max_cycle;Signal;HPM_P1;HPM_P2
2021/07/11 00:00:28;;;;;;;19.17;14.10;;;;;;;17.41;100.00;101512.75;3597089;39;20413;-62
2021/07/11 00:02:55;;;;;;;17.20;12.55;;;;;;;17.41;100.00;101523.66;3597537;39;20099;-63
2021/07/11 00:05:23;;;;;;;16.73;11.50;;;;;;;17.25;100.00;101516.28;3600956;39;20043;-62
2021/07/11 00:07:49;;;;;;;16.67;10.85;;;;;;;17.21;100.00;101518.47;3598093;39;20654;-62
2021/07/11 00:10:17;;;;;;;15.50;10.98;;;;;;;17.17;100.00;101520.66;3597127;39;20042;-64
2021/07/11 00:12:47;;;;;;;14.18;10.73;;;;;;;17.08;100.00;101528.97;3597651;39;20035;-64
2021/07/11 00:15:16;;;;;;;14.70;10.95;;;;;;;17.06;100.00;101518.22;3598773;39;20290;-63
2021/07/11 00:17:43;;;;;;;16.98;12.45;;;;;;;17.05;100.00;101521.97;3599056;39;20043;-63
2021/07/11 00:20:12;;;;;;;15.02;11.77;;;;;;;17.02;100.00;101514.16;3599330;39;20077;-63
2021/07/11 00:22:39;;;;;;;14.40;11.20;;;;;;;17.02;100.00;101513.28;3601827;39;20039;-63
2021/07/11 00:25:07;;;;;;;13.70;10.43;;;;;;;17.10;100.00;101516.03;3597907;39;20391;-63
2021/07/11 00:27:34;;;;;;;16.35;10.82;;;;;;;17.09;100.00;101526.09;3596800;39;20047;-62
2021/07/11 00:30:04;;;;;;;14.93;11.85;;;;;;;17.05;100.00;101519.25;3598813;39;20073;-63
2021/07/11 00:32:31;;;;;;;14.57;10.63;;;;;;;17.10;100.00;101521.47;3598172;39;20047;-63
2021/07/11 00:34:58;;;;;;;13.93;10.60;;;;;;;17.04;100.00;101524.84;3596981;39;20059;-62
2021/07/11 00:37:24;;;;;;;12.15;10.52;;;;;;;17.04;100.00;101522.97;3598792;39;20073;-63
2021/07/11 00:39:50;;;;;;;14.75;10.95;;;;;;;17.06;100.00;101520.94;3600157;39;20050;-62
2021/07/11 00:42:18;;;;;;;14.05;10.45;;;;;;;17.13;100.00;101521.16;3598627;39;20047;-64
2021/07/11 00:44:44;;;;;;;14.13;10.32;;;;;;;17.11;100.00;101523.19;3598131;39;20093;-62
2021/07/11 00:47:12;;;;;;;13.50;10.48;;;;;;;17.14;100.00;101520.16;3596973;39;20067;-64
2021/07/11 00:49:42;;;;;;;13.23;10.13;;;;;;;17.13;100.00;101526.59;3598731;39;20067;-63
2021/07/11 00:52:09;;;;;;;12.82;9.23;;;;;;;17.15;100.00;101522.69;3598290;39;20056;-63
2021/07/11 00:54:35;;;;;;;13.40;10.38;;;;;;;17.17;100.00;101517.94;3597919;39;20327;-63
2021/07/11 00:57:02;;;;;;;14.80;10.68;;;;;;;17.15;100.00;101511.81;3597618;39;20409;-63
2021/07/11 00:59:28;;;;;;;13.45;10.77;;;;;;;17.13;100.00;101522.00;3598015;39;20055;-62
2021/07/11 01:02:03;;;;;;;14.48;10.98;;;;;;;17.10;100.00;101527.75;3598506;39;20143;-63
2021/07/11 01:04:38;;;;;;;14.25;10.55;;;;;;;17.08;100.00;101524.38;3598181;39;20293;-63
2021/07/11 01:07:08;;;;;;;13.27;9.88;;;;;;;17.10;100.00;101527.75;3614520;39;20123;-63
2021/07/11 01:09:38;;;;;;;14.50;11.32;;;;;;;17.11;100.00;101521.31;3608911;39;20309;-62
2021/07/11 01:12:09;;;;;;;14.35;10.80;;;;;;;17.15;100.00;101519.97;3597738;39;20140;-63
2021/07/11 01:14:37;;;;;;;12.70;11.00;;;;;;;17.21;100.00;101526.66;3602136;39;20065;-62
2021/07/11 01:17:05;;;;;;;14.55;11.15;;;;;;;17.05;100.00;101527.41;3598009;39;20312;-62
2021/07/11 01:19:44;;;;;;;15.77;11.65;;;;;;;17.00;100.00;101516.16;3600115;39;20039;-63
2021/07/11 01:22:15;;;;;;;15.88;12.30;;;;;;;17.05;100.00;101524.69;3598730;39;20047;-62
2021/07/11 01:24:50;;;;;;;13.95;11.18;;;;;;;17.07;100.00;101521.81;3599311;39;20042;-62
2021/07/11 01:27:19;;;;;;;15.68;11.60;;;;;;;17.05;100.00;101515.66;3598813;39;20064;-63
2021/07/11 01:29:46;;;;;;;;;;;;;;;17.02;100.00;101514.16;3599708;39;20039;-62
2021/07/11 01:32:14;;;;;;;15.90;11.43;;;;;;;17.07;100.00;101513.66;3598653;39;19967;-64
2021/07/11 01:34:41;;;;;;;17.52;12.60;;;;;;;17.13;100.00;101505.69;3600250;39;20031;-63
2021/07/11 01:37:08;;;;;;;16.65;11.88;;;;;;;17.11;100.00;101502.28;3598045;39;20951;-62
2021/07/11 01:39:35;;;;;;;13.88;10.88;;;;;;;17.19;100.00;101511.50;3599633;39;20046;-61
2021/07/11 01:42:03;;;;;;;17.90;12.10;;;;;;;17.20;100.00;101511.31;3598756;39;20054;-63
2021/07/11 01:44:31;;;;;;;15.02;11.40;;;;;;;17.17;100.00;101506.22;3599507;39;20091;-61
2021/07/11 01:46:59;;;;;;;18.88;12.52;;;;;;;17.15;100.00;101514.53;3599867;39;20023;-62
2021/07/11 01:49:26;;;;;;;14.75;11.27;;;;;;;17.17;100.00;101507.06;3599823;39;20373;-63
2021/07/11 01:51:53;;;;;;;15.80;11.93;;;;;;;17.07;100.00;101511.78;3596876;39;20039;-62
2021/07/11 01:54:20;;;;;;;13.93;11.10;;;;;;;17.09;100.00;101517.91;3601074;39;20120;-62
2021/07/11 01:56:47;;;;;;;16.70;11.50;;;;;;;17.11;100.00;101513.16;3602086;39;20371;-62
2021/07/11 01:59:13;;;;;;;14.68;10.82;;;;;;;17.07;100.00;101516.38;3598039;39;20047;-61
2021/07/11 02:01:41;;;;;;;15.82;11.80;;;;;;;17.10;100.00;101511.44;3599895;39;20420;-61
2021/07/11 02:04:08;;;;;;;14.85;10.88;;;;;;;17.04;100.00;101506.66;3603857;39;20042;-62
2021/07/11 02:06:35;;;;;;;13.60;10.48;;;;;;;17.13;100.00;101515.72;3599919;39;20448;-62
2021/07/11 02:09:02;;;;;;;12.48;10.73;;;;;;;17.14;100.00;101510.09;3601104;39;20050;-62
2021/07/11 02:11:29;;;;;;;14.70;11.07;;;;;;;17.07;100.00;101517.22;3602065;39;20342;-63
2021/07/11 02:14:02;;;;;;;18.00;12.27;;;;;;;17.07;100.00;101519.94;3599567;39;20116;-62
2021/07/11 02:16:33;;;;;;;16.17;12.55;;;;;;;16.98;100.00;101516.31;3603040;39;20056;-62
2021/07/11 02:19:01;;;;;;;16.58;12.82;;;;;;;16.94;100.00;101522.25;3595609;39;20042;-63
2021/07/11 02:21:29;;;;;;;19.05;12.75;;;;;;;16.96;100.00;101514.78;3598763;39;20071;-62
2021/07/11 02:23:57;;;;;;;17.27;11.57;;;;;;;16.91;100.00;101519.84;3599496;39;20058;-62
2021/07/11 02:26:24;;;;;;;17.50;12.70;;;;;;;16.93;100.00;101518.69;3596571;39;20062;-62
2021/07/11 02:28:52;;;;;;;16.02;12.73;;;;;;;17.05;100.00;101519.25;3597430;39;20304;-62
2021/07/11 02:31:19;;;;;;;16.35;12.48;;;;;;;17.08;100.00;101521.66;3592867;39;20049;-62
2021/07/11 02:33:47;;;;;;;16.02;12.00;;;;;;;17.13;100.00;101522.00;3597320;39;20031;-61
2021/07/11 02:36:18;;;;;;;15.95;12.40;;;;;;;17.02;100.00;101525.03;3598425;39;20043;-63
2021/07/11 02:38:49;;;;;;;16.00;12.65;;;;;;;16.97;100.00;101530.09;3598818;39;20043;-62
2021/07/11 02:41:17;;;;;;;17.88;13.07;;;;;;;16.94;100.00;101527.69;3602111;39;20064;-62
2021/07/11 02:43:46;;;;;;;14.25;11.75;;;;;;;16.91;100.00;101534.28;3597715;39;20031;-62
2021/07/11 02:46:17;;;;;;;16.25;12.98;;;;;;;16.92;100.00;101537.88;3596831;39;20071;-63
2021/07/11 02:48:45;;;;;;;17.73;13.20;;;;;;;16.86;100.00;101533.03;3598314;39;20115;-63
2021/07/11 02:51:15;;;;;;;18.45;14.02;;;;;;;16.85;100.00;101534.91;3598444;39;20348;-62
2021/07/11 02:53:45;;;;;;;15.52;13.15;;;;;;;16.84;100.00;101538.63;3599321;39;20399;-62
2021/07/11 02:56:14;;;;;;;16.95;12.65;;;;;;;16.89;100.00;101540.94;3599286;39;20382;-62
2021/07/11 02:58:43;;;;;;;18.85;13.68;;;;;;;16.88;100.00;101534.63;3598397;39;20038;-61
2021/07/11 03:01:10;;;;;;;20.30;13.52;;;;;;;16.89;100.00;101540.94;3599741;39;20048;-62
2021/07/11 03:03:37;;;;;;;17.92;13.18;;;;;;;16.91;100.00;101541.59;3602458;39;20037;-63
2021/07/11 03:06:04;;;;;;;19.90;14.57;;;;;;;16.94;100.00;101544.00;3603361;39;20035;-62
2021/07/11 03:08:31;;;;;;;17.10;12.40;;;;;;;16.94;100.00;101549.44;3598334;39;20042;-63
2021/07/11 03:11:02;;;;;;;15.63;13.02;;;;;;;17.01;100.00;101549.66;3597389;39;20038;-61
2021/07/11 03:13:30;;;;;;;16.35;13.30;;;;;;;17.00;100.00;101548.78;3597987;39;20031;-63
2021/07/11 03:15:57;;;;;;;15.27;12.52;;;;;;;17.05;100.00;101551.03;3598189;39;20553;-62
2021/07/11 03:18:24;;;;;;;19.10;13.60;;;;;;;17.05;100.00;101554.63;3598491;39;20062;-62
2021/07/11 03:20:52;;;;;;;19.80;13.60;;;;;;;17.01;100.00;101550.50;3600388;39;21010;-62
2021/07/11 03:23:19;;;;;;;16.95;13.30;;;;;;;17.07;100.00;101549.84;3595233;39;20039;-62
2021/07/11 03:25:49;;;;;;;19.23;13.45;;;;;;;17.02;100.00;101562.22;3598074;39;20043;-63
2021/07/11 03:28:17;;;;;;;18.65;13.95;;;;;;;16.98;100.00;101550.84;3598523;39;20063;-62
2021/07/11 03:30:46;;;;;;;17.90;14.05;;;;;;;16.96;100.00;101569.16;3599409;39;20086;-62
2021/07/11 03:33:14;;;;;;;16.42;12.63;;;;;;;16.97;100.00;101560.88;3600941;39;20031;-62
2021/07/11 03:35:44;;;;;;;15.48;12.45;;;;;;;16.92;100.00;101562.34;3600138;39;20402;-62
2021/07/11 03:38:18;;;;;;;21.52;13.70;;;;;;;16.85;100.00;101567.53;3598369;39;20039;-62
2021/07/11 03:40:47;;;;;;;18.58;13.88;;;;;;;16.86;100.00;101566.53;3599033;39;20138;-63
2021/07/11 03:43:18;;;;;;;16.13;13.35;;;;;;;16.98;100.00;101567.16;3596587;39;20032;-63
2021/07/11 03:45:47;;;;;;;19.48;14.20;;;;;;;16.89;100.00;101570.84;3598237;39;20079;-62
2021/07/11 03:48:17;;;;;;;20.15;14.82;;;;;;;16.73;100.00;101575.09;3601614;39;20159;-63
2021/07/11 03:50:47;;;;;;;16.85;14.20;;;;;;;16.60;100.00;101580.09;3597844;39;20050;-62
2021/07/11 03:53:18;;;;;;;21.08;16.45;;;;;;;16.55;100.00;101567.00;3596613;39;20023;-62
2021/07/11 03:55:45;;;;;;;22.52;15.75;;;;;;;16.51;100.00;101570.19;3597063;39;20043;-63
2021/07/11 03:58:14;;;;;;;17.52;14.75;;;;;;;16.62;100.00;101561.75;3600523;39;20297;-62
2021/07/11 04:00:42;;;;;;;19.55;15.27;;;;;;;16.72;100.00;101561.69;3597899;39;20675;-61
2021/07/11 04:03:10;;;;;;;19.38;14.20;;;;;;;16.80;100.00;101559.88;3599932;39;20051;-63
2021/07/11 04:05:39;;;;;;;18.20;14.25;;;;;;;16.81;100.00;101558.00;3606119;39;20056;-62
2021/07/11 04:08:11;;;;;;;20.55;14.25;;;;;;;16.82;100.00;101557.81;3598537;39;20066;-62
2021/07/11 04:10:39;;;;;;;20.20;14.27;;;;;;;16.79;100.00;101558.16;3598064;39;20055;-62
2021/07/11 04:13:06;;;;;;;18.73;14.68;;;;;;;16.82;100.00;101557.81;3597056;39;20280;-60
2021/07/11 04:15:34;;;;;;;17.80;14.55;;;;;;;16.83;100.00;101555.97;3598072;39;20386;-61
2021/07/11 04:18:04;;;;;;;19.73;14.70;;;;;;;16.88;100.00;101545.50;3598185;39;20051;-63
2021/07/11 04:20:33;;;;;;;19.17;13.80;;;;;;;16.91;100.00;101544.31;3601642;39;20632;-62
2021/07/11 04:23:01;;;;;;;19.10;15.35;;;;;;;16.88;100.00;101544.66;3599570;39;20054;-62
2021/07/11 04:25:31;;;;;;;18.50;14.60;;;;;;;16.93;100.00;101542.28;3599210;39;20385;-62
2021/07/11 04:27:59;;;;;;;18.90;14.73;;;;;;;16.95;100.00;101551.16;3601526;39;20467;-61
2021/07/11 04:30:26;;;;;;;17.85;14.50;;;;;;;16.90;100.00;101558.94;3600867;39;20074;-61
2021/07/11 04:32:53;;;;;;;20.48;14.80;;;;;;;16.89;100.00;101551.81;3600503;39;20374;-61
2021/07/11 04:35:19;;;;;;;17.60;13.73;;;;;;;16.93;100.00;101553.16;3599813;39;20371;-61
2021/07/11 04:37:47;;;;;;;19.08;14.73;;;;;;;17.01;100.00;101553.22;3599132;39;20043;-61
2021/07/11 04:40:14;;;;;;;18.08;13.45;;;;;;;17.07;100.00;101555.28;3599104;39;20041;-61
2021/07/11 04:42:41;;;;;;;18.77;14.88;;;;;;;17.13;100.00;101549.19;3600595;39;20051;-61
2021/07/11 04:45:08;;;;;;;19.17;15.48;;;;;;;17.04;100.00;101555.63;3598643;39;20062;-62
2021/07/11 04:47:35;;;;;;;18.67;13.27;;;;;;;17.02;100.00;101567.66;3597882;39;20070;-61
2021/07/11 04:50:01;;;;;;;20.98;15.05;;;;;;;17.07;100.00;101568.88;3598348;39;20068;-61
2021/07/11 04:52:28;;;;;;;17.75;13.70;;;;;;;17.00;100.00;101565.09;3599923;39;20375;-61
2021/07/11 04:54:56;;;;;;;19.70;15.23;;;;;;;17.01;100.00;101574.97;3599023;39;20075;-62
2021/07/11 04:57:22;;;;;;;20.52;15.10;;;;;;;17.21;100.00;101567.44;3600321;39;20366;-61
2021/07/11 04:59:49;;;;;;;18.67;14.48;;;;;;;17.33;100.00;101565.28;3598738;39;20042;-61
2021/07/11 05:02:15;;;;;;;19.30;14.82;;;;;;;17.48;100.00;101550.03;3599155;39;20035;-61
2021/07/11 05:04:42;;;;;;;19.08;14.75;;;;;;;17.47;100.00;101548.31;3599514;39;20039;-61
2021/07/11 05:07:08;;;;;;;18.23;13.90;;;;;;;17.40;100.00;101544.56;3599445;39;20377;-61
2021/07/11 05:09:34;;;;;;;20.50;14.50;;;;;;;17.32;100.00;101536.38;3599307;39;20309;-62
2021/07/11 05:12:02;;;;;;;18.92;14.43;;;;;;;17.37;100.00;101539.44;3596712;39;21161;-61
2021/07/11 05:14:29;;;;;;;20.35;14.70;;;;;;;17.51;100.00;101538.81;3600067;39;20320;-61
2021/07/11 05:16:55;;;;;;;20.85;14.65;;;;;;;17.53;100.00;101541.38;3597430;39;20043;-62
2021/07/11 05:19:22;;;;;;;19.27;14.75;;;;;;;17.55;100.00;101535.75;3598984;39;20051;-61
2021/07/11 05:21:48;;;;;;;21.35;15.20;;;;;;;17.54;100.00;101531.34;3599078;39;20039;-61
2021/07/11 05:24:15;;;;;;;17.83;14.68;;;;;;;17.64;100.00;101537.50;3600308;39;20050;-62
2021/07/11 05:26:41;;;;;;;17.30;14.35;;;;;;;17.64;100.00;101534.78;3598217;39;20047;-62
2021/07/11 05:29:09;;;;;;;17.83;14.73;;;;;;;17.74;100.00;101537.34;3598378;39;20116;-60
2021/07/11 05:31:35;;;;;;;32.60;14.30;;;;;;;17.84;100.00;101538.91;3599282;39;20048;-62
2021/07/11 05:34:02;;;;;;;18.15;14.82;;;;;;;17.85;100.00;101529.69;3597838;39;20037;-61
2021/07/11 05:36:28;;;;;;;17.88;14.48;;;;;;;17.65;100.00;101531.88;3598917;39;20048;-62
2021/07/11 05:38:55;;;;;;;18.63;14.02;;;;;;;17.63;100.00;101543.97;3599181;39;20048;-61
2021/07/11 05:41:21;;;;;;;18.30;14.82;;;;;;;17.79;100.00;101538.53;3599332;39;20423;-62
2021/07/11 05:43:48;;;;;;;22.15;15.05;;;;;;;17.62;100.00;101542.25;3597879;39;20055;-61
2021/07/11 05:46:15;;;;;;;20.33;15.98;;;;;;;17.47;100.00;101542.88;3597395;39;20391;-62
2021/07/11 05:48:42;;;;;;;19.20;15.27;;;;;;;17.48;100.00;101547.31;3597630;39;20419;-61
2021/07/11 05:51:08;;;;;;;22.98;16.30;;;;;;;17.27;100.00;101550.47;3598338;39;20393;-62
2021/07/11 05:53:35;;;;;;;21.67;16.70;;;;;;;17.39;100.00;101548.31;3598161;39;20035;-62
2021/07/11 05:56:01;;;;;;;21.75;16.73;;;;;;;17.39;100.00;101547.44;3599148;39;20051;-62
2021/07/11 05:58:28;;;;;;;18.50;15.10;;;;;;;17.48;100.00;101544.59;3599263;39;20283;-61
2021/07/11 06:00:54;;;;;;;19.40;15.77;;;;;;;17.47;100.00;101540.16;3601909;39;20032;-62
2021/07/11 06:03:22;;;;;;;23.73;16.63;;;;;;;17.55;100.00;101533.03;3600006;39;20302;-62
2021/07/11 06:05:48;;;;;;;18.52;16.13;;;;;;;17.67;100.00;101539.88;3599278;39;20052;-63
2021/07/11 06:08:15;;;;;;;23.92;15.13;;;;;;;17.75;100.00;101534.44;3598235;39;20044;-62
2021/07/11 06:10:41;;;;;;;18.88;15.52;;;;;;;17.76;100.00;101547.06;3599796;39;20035;-62
2021/07/11 06:13:08;;;;;;;24.73;16.33;;;;;;;17.61;100.00;101543.28;3597228;39;20273;-62
2021/07/11 06:15:34;;;;;;;20.77;15.25;;;;;;;17.62;100.00;101547.69;3597883;39;20038;-61
2021/07/11 06:18:01;;;;;;;19.33;15.82;;;;;;;17.59;100.00;101553.47;3599747;39;20031;-62
2021/07/11 06:20:29;;;;;;;22.58;17.80;;;;;;;17.83;100.00;101555.41;3598194;39;20043;-61
2021/07/11 06:22:56;;;;;;;19.92;16.25;;;;;;;17.93;100.00;101549.84;3599933;39;20024;-61
2021/07/11 06:25:22;;;;;;;23.70;16.85;;;;;;;18.03;100.00;101540.50;3599716;39;20027;-62
2021/07/11 06:27:49;;;;;;;19.45;15.02;;;;;;;18.03;100.00;101531.47;3598901;39;20397;-62
2021/07/11 06:30:18;;;;;;;21.70;16.60;;;;;;;17.91;100.00;101536.38;3598926;39;20043;-62
2021/07/11 06:32:47;;;;;;;20.50;16.17;;;;;;;17.97;100.00;101532.13;3601222;39;20055;-62
2021/07/11 06:35:15;;;;;;;22.00;17.02;;;;;;;18.05;100.00;101543.06;3602589;39;21156;-62
2021/07/11 06:37:45;;;;;;;20.52;16.27;;;;;;;17.95;100.00;101545.94;3602111;39;20047;-62
2021/07/11 06:40:12;;;;;;;20.42;15.57;;;;;;;18.21;100.00;101551.25;3600397;39;20050;-62
2021/07/11 06:42:39;;;;;;;22.52;17.55;;;;;;;17.81;100.00;101558.28;3599230;39;20055;-63
2021/07/11 06:45:07;;;;;;;21.80;16.67;;;;;;;18.04;100.00;101557.69;3602924;39;20059;-62
2021/07/11 06:47:34;;;;;;;20.15;16.25;;;;;;;17.89;100.00;101545.69;3604764;39;20408;-62
2021/07/11 06:50:01;;;;;;;22.33;17.25;;;;;;;18.18;100.00;101548.84;3602577;39;20412;-61
2021/07/11 06:52:27;;;;;;;23.30;18.55;;;;;;;17.92;100.00;101556.28;3601231;39;20039;-63
2021/07/11 06:54:55;;;;;;;23.88;18.13;;;;;;;17.97;100.00;101548.47;3601286;39;20071;-62
2021/07/11 06:57:22;;;;;;;26.53;19.03;;;;;;;18.01;100.00;101563.47;3601935;39;20030;-62
2021/07/11 06:59:49;;;;;;;25.63;18.08;;;;;;;18.31;100.00;101563.84;3602872;39;20413;-62
2021/07/11 07:02:15;;;;;;;21.65;17.80;;;;;;;18.49;100.00;101566.38;3602986;39;20061;-61
2021/07/11 07:04:42;;;;;;;20.67;16.17;;;;;;;18.71;100.00;101568.44;3601687;39;20072;-61
2021/07/11 07:07:08;;;;;;;24.75;18.67;;;;;;;18.88;100.00;101569.25;3599833;39;20039;-62
2021/07/11 07:09:35;;;;;;;23.75;18.05;;;;;;;19.07;100.00;101572.63;3597141;39;20087;-61
2021/07/11 07:12:03;;;;;;;19.20;17.00;;;;;;;19.55;100.00;101569.88;3600321;39;20405;-63
2021/07/11 07:14:30;;;;;;;19.88;16.30;;;;;;;19.85;100.00;101565.50;3599373;39;20395;-62
2021/07/11 07:16:56;;;;;;;22.63;16.92;;;;;;;19.95;100.00;101568.84;3599512;39;20301;-63
2021/07/11 07:19:23;;;;;;;22.45;16.77;;;;;;;20.21;100.00;101575.81;3608251;39;20024;-62
2021/07/11 07:21:49;;;;;;;19.85;16.38;;;;;;;20.51;100.00;101565.00;3601983;39;20056;-61
2021/07/11 07:24:16;;;;;;;19.38;16.42;;;;;;;20.02;100.00;101573.56;3596456;39;20386;-61
2021/07/11 07:26:42;;;;;;;18.95;16.00;;;;;;;20.23;100.00;101576.50;3603510;39;20027;-63
2021/07/11 07:29:10;;;;;;;19.45;15.50;;;;;;;20.34;100.00;101577.94;3598442;39;20309;-62
2021/07/11 07:31:37;;;;;;;20.38;15.55;;;;;;;20.35;100.00;101576.09;3605916;39;20045;-61
2021/07/11 07:34:03;;;;;;;20.77;16.42;;;;;;;20.04;100.00;101582.47;3598372;39;20070;-62
2021/07/11 07:36:30;;;;;;;19.63;16.05;;;;;;;20.03;100.00;101581.59;3597083;39;20719;-62
2021/07/11 07:38:56;;;;;;;21.35;16.80;;;;;;;19.81;100.00;101588.72;3598751;39;20039;-63
2021/07/11 07:41:23;;;;;;;22.08;17.23;;;;;;;19.72;100.00;101597.97;3597687;39;20039;-62
2021/07/11 07:43:49;;;;;;;23.02;18.55;;;;;;;19.34;100.00;101595.91;3597916;39;20435;-63
2021/07/11 07:46:17;;;;;;;25.70;17.75;;;;;;;19.39;100.00;101601.69;3596906;39;20070;-62
2021/07/11 07:48:44;;;;;;;20.52;16.45;;;;;;;19.39;100.00;101603.56;3605685;39;20426;-62
2021/07/11 07:51:11;;;;;;;23.30;18.30;;;;;;;19.41;100.00;101598.78;3606565;39;20031;-62
2021/07/11 07:53:38;;;;;;;21.10;18.05;;;;;;;19.29;100.00;101598.31;3602622;39;20035;-62
2021/07/11 07:56:05;;;;;;;22.02;17.48;;;;;;;19.31;100.00;101601.72;3598452;39;20114;-61
2021/07/11 07:58:31;;;;;;;21.33;17.48;;;;;;;19.44;100.00;101612.94;3598317;39;20065;-62
2021/07/11 08:00:58;;;;;;;24.67;19.02;;;;;;;19.03;100.00;101606.75;3601048;39;20043;-62
2021/07/11 08:03:25;;;;;;;24.42;19.55;;;;;;;18.85;100.00;101607.75;3600935;39;20044;-62
2021/07/11 08:05:52;;;;;;;24.63;19.80;;;;;;;19.08;100.00;101602.47;3600191;39;20047;-61
2021/07/11 08:08:18;;;;;;;25.48;20.50;;;;;;;18.91;100.00;101604.38;3603735;39;20085;-62
2021/07/11 08:10:45;;;;;;;23.38;18.77;;;;;;;19.15;100.00;101615.41;3601552;39;20045;-63
2021/07/11 08:13:11;;;;;;;24.83;20.23;;;;;;;19.28;100.00;101610.25;3599392;39;20051;-62
2021/07/11 08:15:38;;;;;;;26.35;19.35;;;;;;;18.98;100.00;101615.47;3596972;39;20051;-62
2021/07/11 08:18:05;;;;;;;32.30;19.67;;;;;;;19.28;100.00;101604.81;3600295;39;20043;-63
2021/07/11 08:20:33;;;;;;;24.30;18.95;;;;;;;19.06;100.00;101612.69;3597726;39;20058;-62
2021/07/11 08:22:59;;;;;;;22.00;18.27;;;;;;;19.51;100.00;101604.91;3599194;39;20046;-60
2021/07/11 08:25:26;;;;;;;22.67;18.30;;;;;;;19.73;100.00;101605.16;3595972;39;20031;-63
2021/07/11 08:27:52;;;;;;;21.40;17.63;;;;;;;19.70;100.00;101614.53;3601126;39;20351;-62
2021/07/11 08:30:19;;;;;;;21.50;17.30;;;;;;;19.73;100.00;101607.88;3599221;39;20031;-62
2021/07/11 08:32:45;;;;;;;22.80;18.60;;;;;;;19.62;100.00;101609.09;3600901;39;20035;-62
2021/07/11 08:35:13;;;;;;;24.48;18.58;;;;;;;19.34;100.00;101612.28;3598198;39;20035;-63
2021/07/11 08:37:40;;;;;;;21.65;18.00;;;;;;;19.34;100.00;101614.16;3597716;39;20048;-62
2021/07/11 08:40:10;;;;;;;23.80;19.85;;;;;;;18.85;100.00;101615.09;3601519;39;20274;-62
2021/07/11 08:42:39;;;;;;;23.73;18.85;;;;;;;18.78;100.00;101619.53;3598169;39;20041;-63
2021/07/11 08:45:06;;;;;;;;;;;;;;;18.57;100.00;101615.47;3598493;39;20066;-62
2021/07/11 08:47:32;;;;;;;24.02;19.88;;;;;;;18.60;100.00;101620.56;3599367;39;20004;-61
2021/07/11 08:49:59;;;;;;;23.63;19.90;;;;;;;18.65;100.00;101626.34;3601951;39;20039;-62
2021/07/11 08:52:25;;;;;;;24.42;19.75;;;;;;;18.62;100.00;101620.41;3604219;39;20047;-61
2021/07/11 08:54:53;;;;;;;23.63;19.90;;;;;;;18.76;100.00;101617.00;3600834;39;20144;-62
2021/07/11 08:57:19;;;;;;;28.00;20.33;;;;;;;18.72;100.00;101615.63;3599782;39;20085;-62
2021/07/11 08:59:46;;;;;;;24.80;19.48;;;;;;;18.90;100.00;101619.06;3599891;39;20416;-62
2021/07/11 09:02:12;;;;;;;26.35;22.08;;;;;;;18.64;100.00;101629.25;3595712;39;20041;-62
2021/07/11 09:04:41;;;;;;;26.55;20.67;;;;;;;18.68;100.00;101633.34;3598003;39;20054;-63
2021/07/11 09:07:08;;;;;;;27.90;21.65;;;;;;;18.72;100.00;101634.72;3597308;39;21461;-62
2021/07/11 09:09:36;;;;;;;23.73;19.85;;;;;;;18.87;100.00;101634.91;3598612;39;20333;-62
2021/07/11 09:12:06;;;;;;;25.08;20.00;;;;;;;18.77;100.00;101623.28;3596040;39;20463;-62
2021/07/11 09:14:35;;;;;;;28.45;21.25;;;;;;;18.80;100.00;101629.25;3597780;39;20067;-63
2021/07/11 09:17:04;;;;;;;27.73;21.08;;;;;;;18.71;100.00;101625.69;3595347;39;20337;-63
2021/07/11 09:19:32;;;;;;;26.95;21.55;;;;;;;18.76;100.00;101636.06;3597578;39;20105;-63
2021/07/11 09:22:02;;;;;;;26.02;21.75;;;;;;;18.88;100.00;101636.59;3597342;39;20035;-62
2021/07/11 09:24:29;;;;;;;30.73;22.05;;;;;;;18.93;100.00;101644.28;3597476;39;20059;-63
2021/07/11 09:27:07;;;;;;;26.58;19.80;;;;;;;19.07;100.00;101646.31;3597798;39;20050;-62
2021/07/11 09:29:34;;;;;;;25.65;19.63;;;;;;;19.18;100.00;101643.19;3598526;39;20063;-62
2021/07/11 09:32:01;;;;;;;26.42;20.02;;;;;;;19.19;100.00;101639.44;3597899;39;20038;-63
2021/07/11 09:34:29;;;;;;;27.83;22.15;;;;;;;19.14;100.00;101646.44;3598743;39;20063;-64
2021/07/11 09:37:08;;;;;;;25.45;20.13;;;;;;;19.22;100.00;101639.09;3599520;39;20063;-63
2021/07/11 09:39:35;;;;;;;28.08;20.77;;;;;;;19.28;100.00;101651.19;3603328;39;20313;-63
2021/07/11 09:42:04;;;;;;;28.45;22.25;;;;;;;19.02;100.00;101655.00;3601380;39;20332;-65
2021/07/11 09:44:42;;;;;;;30.48;22.73;;;;;;;18.67;100.00;101661.66;3597080;39;20484;-63
2021/07/11 09:47:18;;;;;;;34.83;25.50;;;;;;;18.43;100.00;101671.50;3597788;39;20047;-62
2021/07/11 09:49:56;;;;;;;35.45;25.92;;;;;;;18.28;100.00;101673.19;3595559;39;20046;-64
2021/07/11 09:52:23;;;;;;;33.17;25.48;;;;;;;18.32;100.00;101669.94;3597721;39;20198;-64
2021/07/11 09:54:54;;;;;;;33.35;25.38;;;;;;;18.26;100.00;101672.50;3599429;39;20050;-64
2021/07/11 09:57:31;;;;;;;38.30;27.45;;;;;;;18.25;100.00;101670.78;3602641;39;20385;-63
2021/07/11 10:02:25;;;;;;;31.23;24.05;;;;;;;18.24;100.00;101678.13;3669709;22;20048;-63
2021/07/11 10:04:52;;;;;;;33.75;25.65;;;;;;;18.40;100.00;101682.72;3599601;39;20032;-64
2021/07/11 10:07:19;;;;;;;33.00;25.60;;;;;;;18.40;100.00;101677.28;3586533;39;20039;-63
2021/07/11 10:09:45;;;;;;;31.70;25.02;;;;;;;18.25;100.00;101677.06;3583659;39;20040;-62
2021/07/11 10:12:12;;;;;;;32.15;25.38;;;;;;;18.33;100.00;101676.22;3584496;39;20056;-63
2021/07/11 10:14:39;;;;;;;30.40;24.17;;;;;;;18.37;100.00;101683.94;3586326;39;20036;-63
2021/07/11 10:17:06;;;;;;;34.72;25.98;;;;;;;18.28;100.00;101678.63;3583323;39;20040;-64
2021/07/11 10:19:34;;;;;;;32.90;25.63;;;;;;;18.32;100.00;101683.56;3587028;39;20040;-63
2021/07/11 10:22:11;;;;;;;35.40;27.38;;;;;;;18.11;100.00;101681.31;3586620;39;20382;-62
2021/07/11 10:24:41;;;;;;;41.55;29.23;;;;;;;18.02;100.00;101685.00;3587545;39;20078;-61
2021/07/11 10:27:17;;;;;;;33.28;26.30;;;;;;;18.09;100.00;101694.22;3581803;39;20036;-63
2021/07/11 10:29:46;;;;;;;37.22;27.05;;;;;;;18.17;100.00;101688.81;3581997;39;20039;-62
2021/07/11 10:35:21;;;;;;;38.50;28.38;;;;;;;18.08;100.00;101700.72;3633430;22;20128;-61
2021/07/11 10:37:51;;;;;;;38.00;28.27;;;;;;;18.12;100.00;101696.63;3586763;39;20111;-63
2021/07/11 10:40:20;;;;;;;37.47;27.27;;;;;;;18.07;100.00;101703.59;3589471;39;20027;-63
2021/07/11 10:42:48;;;;;;;36.35;27.85;;;;;;;18.01;100.00;101705.97;3596458;39;20097;-63
2021/07/11 10:45:16;;;;;;;39.28;27.73;;;;;;;18.07;100.00;101704.44;3587274;39;20076;-63
2021/07/11 10:47:42;;;;;;;35.22;26.48;;;;;;;18.09;100.00;101696.94;3587774;39;20039;-63
2021/07/11 10:50:26;;;;;;;40.22;27.63;;;;;;;18.03;100.00;101686.72;3587335;39;20416;-63
2021/07/11 10:52:54;;;;;;;38.65;27.52;;;;;;;18.35;100.00;101680.50;3591135;39;20393;-64
2021/07/11 10:55:21;;;;;;;36.15;26.02;;;;;;;18.68;100.00;101677.84;3594111;39;20124;-63
2021/07/11 10:57:47;;;;;;;33.70;25.08;;;;;;;18.93;100.00;101661.47;3587022;39;21211;-64
2021/07/11 11:00:17;;;;;;;29.42;21.90;;;;;;;19.16;100.00;101667.09;3591418;39;20040;-64
2021/07/11 11:02:45;;;;;;;32.47;24.25;;;;;;;19.24;100.00;101664.34;3588991;39;20117;-61
2021/07/11 11:05:16;;;;;;;28.65;21.95;;;;;;;19.27;100.00;101668.59;3586771;39;20318;-60
2021/07/11 11:07:46;;;;;;;27.02;21.00;;;;;;;19.37;100.00;101668.41;3591098;39;20044;-61
2021/07/11 11:10:34;;;;;;;27.42;20.85;;;;;;;19.54;100.00;101664.59;3585272;39;20168;-60